createdAt,value
2019-01-13T00:02:00.691Z,76.90
2019-01-13T00:04:39.609Z,77.00
2019-01-13T00:07:11.465Z,77.10
2019-01-13T00:09:42.025Z,77.30
2019-01-13T00:12:12.998Z,77.20
2019-01-13T00:14:59.087Z,77.40
2019-01-13T00:17:40.114Z,77.40
2019-01-13T00:20:41.380Z,77.40
2019-01-13T00:23:29.637Z,77.50
2019-01-13T00:26:14.295Z,77.50
2019-01-13T00:28:53.537Z,77.50
2019-01-13T00:31:57.379Z,77.30
2019-01-13T00:34:25.823Z,77.30
2019-01-13T00:37:07.508Z,77.30
2019-01-13T00:42:54.972Z,77.10
2019-01-13T00:45:47.087Z,77.10
2019-01-13T00:48:28.813Z,77.00
2019-01-13T00:51:03.238Z,77.20
2019-01-13T00:53:33.968Z,77.10
2019-01-13T00:56:06.447Z,77.20
2019-01-13T00:58:48.478Z,77.10
2019-01-13T01:01:20.886Z,77.20
2019-01-13T01:08:59.939Z,77.20
2019-01-13T01:12:15.362Z,77.30
2019-01-13T01:31:21.904Z,77.00
2019-01-13T01:34:24.617Z,76.90
2019-01-13T01:36:59.917Z,76.90
2019-01-13T01:39:41.863Z,76.90
2019-01-13T01:42:16.326Z,76.80
2019-01-13T01:44:52.502Z,76.80
2019-01-13T01:47:26.721Z,76.60
2019-01-13T01:50:25.094Z,76.70
2019-01-13T01:53:01.064Z,76.60
2019-01-13T01:55:40.445Z,76.50
2019-01-13T01:58:12.451Z,76.40
2019-01-13T02:00:43.388Z,76.40
2019-01-13T02:03:13.913Z,76.40
2019-01-13T02:05:45.904Z,76.40
2019-01-13T02:08:16.501Z,76.40
2019-01-13T02:10:48.566Z,76.40
2019-01-13T02:13:19.347Z,76.40
2019-01-13T02:15:49.878Z,76.40
2019-01-13T02:18:20.399Z,76.40
2019-01-13T02:21:05.111Z,76.40
2019-01-13T02:23:23.173Z,76.20
2019-01-13T02:25:55.820Z,76.20
2019-01-13T02:28:26.703Z,76.10
2019-01-13T02:30:58.234Z,76.10
2019-01-13T02:33:28.904Z,76.20
2019-01-13T02:35:59.331Z,76.30
2019-01-13T02:38:29.789Z,76.20
2019-01-13T02:41:00.427Z,76.20
2019-01-13T02:43:33.505Z,76.00
2019-01-13T02:46:06.034Z,76.10
2019-01-13T02:48:40.907Z,76.20
2019-01-13T02:51:11.785Z,76.20
2019-01-13T02:53:42.384Z,76.10
2019-01-13T02:56:12.827Z,76.00
2019-01-13T02:58:43.224Z,76.10
2019-01-13T03:01:13.746Z,76.00
2019-01-13T03:03:44.154Z,76.10
2019-01-13T03:06:14.701Z,76.00
2019-01-13T03:08:45.187Z,75.90
2019-01-13T03:11:17.100Z,75.80
2019-01-13T03:13:48.741Z,75.70
2019-01-13T03:16:24.325Z,75.60
2019-01-13T03:18:54.516Z,75.50
2019-01-13T03:21:33.114Z,75.40
2019-01-13T03:24:06.375Z,75.20
2019-01-13T03:26:40.538Z,75.00
2019-01-13T03:29:11.064Z,75.00
2019-01-13T03:31:41.562Z,75.00
2019-01-13T03:34:12.278Z,75.00
2019-01-13T03:36:44.182Z,75.00
2019-01-13T03:39:15.211Z,75.00
2019-01-13T03:41:49.069Z,75.00
2019-01-13T03:44:19.623Z,75.10
2019-01-13T03:46:52.746Z,75.00
2019-01-13T03:49:32.814Z,75.10
2019-01-13T03:52:06.530Z,75.10
2019-01-13T03:54:37.773Z,75.10
2019-01-13T03:57:09.747Z,75.10
2019-01-13T03:59:40.597Z,75.10
2019-01-13T04:02:14.353Z,75.10
2019-01-13T04:04:45.049Z,75.00
2019-01-13T04:07:16.926Z,75.00
2019-01-13T04:09:53.449Z,75.70
2019-01-13T04:12:23.930Z,75.00
2019-01-13T04:14:54.487Z,75.00
2019-01-13T04:17:28.747Z,75.00
2019-01-13T04:19:59.684Z,75.00
2019-01-13T04:22:30.138Z,75.00
2019-01-13T04:25:00.828Z,75.00
2019-01-13T04:27:31.368Z,75.00
2019-01-13T04:30:01.850Z,75.00
2019-01-13T04:32:32.498Z,75.00
2019-01-13T04:35:09.287Z,75.00
2019-01-13T04:37:42.188Z,75.00
2019-01-13T04:40:18.917Z,75.00
2019-01-13T04:42:49.576Z,75.00
2019-01-13T04:45:22.812Z,75.00
2019-01-13T04:47:55.464Z,75.10
2019-01-13T04:50:27.195Z,75.10
2019-01-13T04:52:59.664Z,75.40
2019-01-13T04:55:30.855Z,75.50
2019-01-13T04:58:01.329Z,75.50
2019-01-13T05:00:31.972Z,76.20
2019-01-13T05:03:10.160Z,75.70
2019-01-13T05:05:45.909Z,75.70
2019-01-13T05:08:21.270Z,75.80
2019-01-13T05:10:52.868Z,75.90
2019-01-13T05:13:25.137Z,76.10
2019-01-13T05:15:57.112Z,76.00
2019-01-13T05:18:29.585Z,75.90
2019-01-13T05:21:01.723Z,76.10
2019-01-13T05:23:34.092Z,76.10
2019-01-13T05:26:07.706Z,76.00
2019-01-13T05:28:48.811Z,75.80
2019-01-13T05:31:16.988Z,76.00
2019-01-13T05:33:53.312Z,76.00
2019-01-13T05:36:27.026Z,76.10
2019-01-13T05:39:05.921Z,76.10
2019-01-13T05:41:39.552Z,76.00
2019-01-13T05:44:12.631Z,76.00
2019-01-13T05:46:43.081Z,76.00
2019-01-13T05:49:14.072Z,75.90
2019-01-13T05:51:44.686Z,75.90
2019-01-13T05:54:18.060Z,76.00
2019-01-13T05:56:49.936Z,75.90
2019-01-13T05:59:23.660Z,76.00
2019-01-13T06:01:57.639Z,75.90
2019-01-13T06:04:28.960Z,75.90
2019-01-13T06:07:03.902Z,75.90
2019-01-13T06:09:37.171Z,75.90
2019-01-13T06:12:09.700Z,75.80
2019-01-13T06:14:49.761Z,75.80
2019-01-13T06:17:26.597Z,75.80
2019-01-13T06:20:00.380Z,75.80
2019-01-13T06:22:32.667Z,75.70
2019-01-13T06:25:06.446Z,75.80
2019-01-13T06:27:37.069Z,75.80
2019-01-13T06:30:12.805Z,75.70
2019-01-13T06:32:45.077Z,75.70
2019-01-13T06:35:17.381Z,75.80
2019-01-13T06:37:54.274Z,75.60
2019-01-13T06:40:25.136Z,75.60
2019-01-13T06:42:57.587Z,75.60
2019-01-13T06:45:31.494Z,75.60
2019-01-13T06:48:02.262Z,75.40
2019-01-13T06:50:39.986Z,75.50
2019-01-13T06:53:13.378Z,75.50
2019-01-13T06:55:47.222Z,75.40
2019-01-13T06:58:20.939Z,75.50
2019-01-13T07:00:55.095Z,75.50
2019-01-13T07:03:25.614Z,75.50
2019-01-13T07:05:56.202Z,75.60
2019-01-13T07:08:29.199Z,75.60
2019-01-13T07:11:02.400Z,75.60
2019-01-13T07:13:34.485Z,75.70
2019-01-13T07:16:05.099Z,75.70
2019-01-13T07:18:43.156Z,75.70
2019-01-13T07:21:18.661Z,75.60
2019-01-13T07:23:56.271Z,75.60
2019-01-13T07:26:36.607Z,75.60
2019-01-13T07:29:22.840Z,75.60
2019-01-13T07:31:59.406Z,75.50
2019-01-13T07:34:30.118Z,75.40
2019-01-13T07:37:01.055Z,75.50
2019-01-13T07:39:31.603Z,75.30
2019-01-13T07:42:04.034Z,75.40
2019-01-13T07:44:44.642Z,75.30
2019-01-13T07:47:19.143Z,75.20
2019-01-13T07:49:54.501Z,75.20
2019-01-13T07:52:33.722Z,75.20
2019-01-13T07:55:33.447Z,75.20
2019-01-13T07:58:25.993Z,75.30
2019-01-13T08:01:13.498Z,75.50
2019-01-13T08:03:59.350Z,75.60
2019-01-13T08:06:34.208Z,75.60
2019-01-13T08:09:14.274Z,75.60
2019-01-13T08:11:50.312Z,75.60
2019-01-13T08:14:32.422Z,75.60
2019-01-13T08:17:10.155Z,75.60
2019-01-13T08:19:41.040Z,75.70
2019-01-13T08:22:14.594Z,75.60
2019-01-13T08:24:58.316Z,75.60
2019-01-13T08:27:41.457Z,75.80
2019-01-13T08:30:24.282Z,75.70
2019-01-13T08:33:01.157Z,75.70
2019-01-13T08:35:35.031Z,75.70
2019-01-13T08:38:13.937Z,75.70
2019-01-13T08:40:56.060Z,75.70
2019-01-13T08:43:48.717Z,75.60
2019-01-13T08:46:35.727Z,75.60
2019-01-13T08:49:10.766Z,75.70
2019-01-13T08:51:51.837Z,75.80
2019-01-13T08:54:42.754Z,75.90
2019-01-13T08:57:16.851Z,76.20
2019-01-13T09:00:01.947Z,76.30
2019-01-13T09:02:40.824Z,76.50
2019-01-13T09:05:13.729Z,76.70
2019-01-13T09:07:44.301Z,76.90
2019-01-13T09:10:21.567Z,77.00
2019-01-13T09:13:01.302Z,77.30
2019-01-13T09:15:33.575Z,77.50
2019-01-13T09:18:11.266Z,77.80
2019-01-13T09:20:58.376Z,77.80
2019-01-13T09:23:28.935Z,78.00
2019-01-13T09:26:02.241Z,78.10
2019-01-13T09:28:43.259Z,78.20
2019-01-13T09:31:18.864Z,78.40
2019-01-13T09:34:07.091Z,78.50
2019-01-13T09:36:49.447Z,78.70
2019-01-13T09:39:22.130Z,78.80
2019-01-13T09:42:02.939Z,79.10
2019-01-13T09:44:48.585Z,79.20
2019-01-13T09:47:18.555Z,79.10
2019-01-13T09:49:52.171Z,79.30
2019-01-13T09:52:27.098Z,79.30
2019-01-13T09:55:02.587Z,79.20
2019-01-13T09:57:46.388Z,79.20
2019-01-13T10:00:30.591Z,79.30
2019-01-13T10:03:03.625Z,79.40
2019-01-13T10:05:37.532Z,79.60
2019-01-13T10:08:19.981Z,79.80
2019-01-13T10:10:53.252Z,79.90
2019-01-13T10:13:36.250Z,80.00
2019-01-13T10:16:13.982Z,80.00
2019-01-13T10:18:49.948Z,80.20
2019-01-13T10:21:20.538Z,80.20
2019-01-13T10:23:56.038Z,80.10
2019-01-13T10:26:34.198Z,80.20
2019-01-13T10:29:15.620Z,80.30
2019-01-13T10:31:46.378Z,80.20
2019-01-13T10:34:19.362Z,80.30
2019-01-13T10:36:54.578Z,80.30
2019-01-13T10:39:25.516Z,80.50
2019-01-13T10:41:56.318Z,80.60
2019-01-13T10:44:40.348Z,80.70
2019-01-13T10:47:13.144Z,80.80
2019-01-13T10:49:44.900Z,80.90
2019-01-13T10:52:19.986Z,81.00
2019-01-13T10:54:56.247Z,81.30
2019-01-13T10:57:48.916Z,81.30
2019-01-13T11:00:37.801Z,81.60
2019-01-13T11:03:21.153Z,81.70
2019-01-13T11:05:56.398Z,81.70
2019-01-13T11:08:30.554Z,81.60
2019-01-13T11:11:03.332Z,81.70
2019-01-13T11:13:40.651Z,82.00
2019-01-13T11:16:13.631Z,82.10
2019-01-13T11:18:46.424Z,82.00
2019-01-13T11:21:19.022Z,82.00
2019-01-13T11:23:49.881Z,82.10
2019-01-13T11:26:20.640Z,82.30
2019-01-13T11:28:51.678Z,82.30
2019-01-13T11:31:26.276Z,82.70
2019-01-13T11:34:23.611Z,82.70
2019-01-13T11:37:08.103Z,82.90
2019-01-13T11:42:41.107Z,83.10
2019-01-13T11:45:54.569Z,83.30
2019-01-13T11:48:32.448Z,83.40
2019-01-13T11:51:17.163Z,83.50
2019-01-13T11:53:52.530Z,83.60
2019-01-13T11:56:39.478Z,83.40
2019-01-13T11:59:25.674Z,83.30
2019-01-13T12:02:12.394Z,83.20
2019-01-13T12:04:54.636Z,83.20
2019-01-13T12:07:44.245Z,83.00
2019-01-13T12:11:01.969Z,82.70
2019-01-13T12:13:56.965Z,82.50
2019-01-13T12:16:32.224Z,82.40
2019-01-13T12:19:13.141Z,82.40
2019-01-13T12:21:48.916Z,82.00
2019-01-13T12:27:36.271Z,81.70
2019-01-13T12:30:27.636Z,81.70
2019-01-13T12:33:14.577Z,81.70
2019-01-13T12:36:43.575Z,81.30
2019-01-13T12:39:29.989Z,81.00
2019-01-13T12:42:12.212Z,81.00
2019-01-13T12:45:05.561Z,80.70
2019-01-13T12:48:00.974Z,80.50
2019-01-13T12:52:30.730Z,80.40
2019-01-13T12:54:07.727Z,80.30
2019-01-13T12:56:46.140Z,80.10
2019-01-13T12:59:21.906Z,80.00
2019-01-13T13:02:00.730Z,79.90
2019-01-13T13:04:37.311Z,79.70
2019-01-13T13:07:16.750Z,79.60
2019-01-13T13:09:53.261Z,79.30
2019-01-13T13:12:28.474Z,79.30
2019-01-13T13:15:04.305Z,79.40
2019-01-13T13:17:37.092Z,79.30
2019-01-13T13:20:22.925Z,79.20
2019-01-13T13:22:56.861Z,79.00
2019-01-13T13:25:31.813Z,79.00
2019-01-13T13:28:01.146Z,78.90
2019-01-13T13:30:42.296Z,79.00
2019-01-13T13:33:12.999Z,78.80
2019-01-13T13:35:43.736Z,78.80
2019-01-13T13:38:17.503Z,78.80
2019-01-13T13:40:48.263Z,78.70
2019-01-13T13:43:19.074Z,78.70
2019-01-13T13:45:53.893Z,78.70
2019-01-13T13:48:25.362Z,78.80
2019-01-13T13:51:10.754Z,79.10
2019-01-13T13:54:08.538Z,79.20
2019-01-13T13:56:53.763Z,79.60
2019-01-13T13:59:31.507Z,79.80
2019-01-13T14:02:10.269Z,80.10
2019-01-13T14:04:49.887Z,80.40
2019-01-13T14:07:30.640Z,80.70
2019-01-13T14:10:16.185Z,80.80
2019-01-13T14:13:05.138Z,81.10
2019-01-13T14:15:39.929Z,81.30
2019-01-13T14:18:19.418Z,81.40
2019-01-13T14:21:08.655Z,81.40
2019-01-13T14:23:43.016Z,81.40
2019-01-13T14:26:17.151Z,81.40
2019-01-13T14:28:53.488Z,81.40
2019-01-13T14:31:30.014Z,81.40
2019-01-13T14:34:03.363Z,81.40
2019-01-13T14:36:49.232Z,81.40
2019-01-13T14:39:22.141Z,81.40
2019-01-13T14:42:08.373Z,81.50
2019-01-13T14:44:44.554Z,81.60
2019-01-13T14:47:26.334Z,81.80
2019-01-13T14:50:19.088Z,81.80
2019-01-13T14:53:01.690Z,81.80
2019-01-13T14:57:32.451Z,81.80
2019-01-13T15:03:03.640Z,82.20
2019-01-13T15:05:32.374Z,82.50
2019-01-13T15:08:07.010Z,82.70
2019-01-13T15:11:12.482Z,82.90
2019-01-13T15:20:15.368Z,83.60
2019-01-13T15:23:12.667Z,83.70
2019-01-13T15:25:57.133Z,83.70
2019-01-13T15:28:41.490Z,83.90
2019-01-13T15:31:19.759Z,84.00
2019-01-13T15:36:58.030Z,84.40
2019-01-13T15:39:51.518Z,84.40
2019-01-13T15:42:41.872Z,84.50
2019-01-13T15:46:43.539Z,84.50
2019-01-13T15:49:23.039Z,84.50
2019-01-13T15:52:22.569Z,84.60
2019-01-13T15:55:27.140Z,84.60
2019-01-13T15:58:30.024Z,84.70
2019-01-13T16:02:19.611Z,84.70
2019-01-13T16:05:39.112Z,84.70
2019-01-13T16:08:42.951Z,84.80
2019-01-13T16:11:32.542Z,84.90
2019-01-13T16:14:09.999Z,84.90
2019-01-13T16:17:12.210Z,84.90
2019-01-13T16:19:46.887Z,84.90
2019-01-13T16:22:20.382Z,84.90
2019-01-13T16:24:54.977Z,84.90
2019-01-13T16:28:02.364Z,84.80
2019-01-13T16:31:52.771Z,84.80
2019-01-13T16:34:33.298Z,84.80
2019-01-13T16:37:14.955Z,84.80
2019-01-13T16:40:46.346Z,85.00
2019-01-13T16:45:53.214Z,85.20
2019-01-13T16:47:33.178Z,85.30
2019-01-13T16:50:15.662Z,85.40
2019-01-13T16:53:05.902Z,85.50
2019-01-13T16:59:23.884Z,85.80
2019-01-13T17:02:12.264Z,85.70
2019-01-13T17:04:53.814Z,85.80
2019-01-13T17:07:36.476Z,85.80
2019-01-13T17:10:28.023Z,85.90
2019-01-13T17:13:25.517Z,85.90
2019-01-13T17:16:18.973Z,85.80
2019-01-13T17:19:51.585Z,85.70
2019-01-13T17:22:50.345Z,85.80
2019-01-13T17:25:31.224Z,85.60
2019-01-13T17:29:37.351Z,85.60
2019-01-13T17:31:30.734Z,85.50
2019-01-13T17:34:05.161Z,85.30
2019-01-13T17:36:54.856Z,85.20
2019-01-13T17:39:31.302Z,85.00
2019-01-13T17:42:15.801Z,85.10
2019-01-13T17:44:56.341Z,85.00
2019-01-13T17:55:10.068Z,84.60
2019-01-13T17:57:42.530Z,84.60
2019-01-13T18:00:48.100Z,84.70
2019-01-13T18:04:30.890Z,84.80
2019-01-13T18:24:00.929Z,84.40
2019-01-13T18:26:36.880Z,84.30
2019-01-13T18:29:12.036Z,84.20
2019-01-13T18:31:52.888Z,84.30
2019-01-13T18:34:28.842Z,83.90
2019-01-13T18:37:10.279Z,83.70
2019-01-13T18:39:42.093Z,83.60
2019-01-13T18:42:16.315Z,83.60
2019-01-13T18:44:49.587Z,83.50
2019-01-13T18:47:28.899Z,83.30
2019-01-13T18:50:07.037Z,83.30
2019-01-13T18:52:47.728Z,83.10
2019-01-13T18:55:24.463Z,82.90
2019-01-13T18:58:04.491Z,82.70
2019-01-13T19:00:42.517Z,82.70
2019-01-13T19:03:16.598Z,82.50
2019-01-13T19:05:54.689Z,82.40
2019-01-13T19:08:32.624Z,82.30
2019-01-13T19:11:34.736Z,81.80
2019-01-13T19:14:40.367Z,81.40
2019-01-13T19:17:21.331Z,81.20
2019-01-13T19:20:27.531Z,80.70
2019-01-13T19:23:08.386Z,79.70
2019-01-13T19:25:52.962Z,79.10
2019-01-13T19:28:30.148Z,78.40
2019-01-13T19:31:02.536Z,78.30
2019-01-13T19:33:33.647Z,78.00
2019-01-13T19:36:12.085Z,77.90
2019-01-13T19:38:44.547Z,77.60
2019-01-13T19:41:16.828Z,78.00
2019-01-13T19:43:47.351Z,77.00
2019-01-13T19:46:21.389Z,77.00
2019-01-13T19:48:51.926Z,76.80
2019-01-13T19:51:31.290Z,76.80
2019-01-13T19:54:06.704Z,76.80
2019-01-13T19:56:38.586Z,76.90
2019-01-13T19:59:10.787Z,76.80
2019-01-13T20:01:49.351Z,76.90
2019-01-13T20:04:44.354Z,76.80
2019-01-13T20:07:13.142Z,77.00
2019-01-13T20:09:47.129Z,77.10
2019-01-13T20:12:25.128Z,77.10
2019-01-13T20:14:55.739Z,77.00
2019-01-13T20:17:42.410Z,77.00
2019-01-13T20:20:20.809Z,77.10
2019-01-13T20:23:05.250Z,77.10
2019-01-13T20:25:47.332Z,77.10
2019-01-13T20:28:27.538Z,77.20
2019-01-13T20:31:06.771Z,77.20
2019-01-13T20:33:44.573Z,77.20
2019-01-13T20:36:27.566Z,77.40
2019-01-13T20:39:06.101Z,77.40
2019-01-13T20:41:50.770Z,77.50
2019-01-13T20:44:39.251Z,77.50
2019-01-13T20:47:13.793Z,77.50
2019-01-13T20:49:47.737Z,77.70
2019-01-13T20:52:23.108Z,77.60
2019-01-13T20:54:53.978Z,77.40
2019-01-13T20:57:26.146Z,77.10
2019-01-13T20:59:59.710Z,76.60
2019-01-13T21:02:40.561Z,76.00
2019-01-13T21:05:11.093Z,75.30
2019-01-13T21:07:41.517Z,74.90
2019-01-13T21:10:18.456Z,74.60
2019-01-13T21:12:53.466Z,74.30
2019-01-13T21:18:34.967Z,74.20
2019-01-13T21:21:19.888Z,74.50
2019-01-13T21:23:59.017Z,74.60
2019-01-13T21:26:32.151Z,75.00
2019-01-13T21:29:02.691Z,75.30
2019-01-13T21:31:39.228Z,75.70
2019-01-13T21:34:14.534Z,75.70
2019-01-13T21:36:49.024Z,75.70
2019-01-13T21:39:25.291Z,75.90
2019-01-13T21:41:58.826Z,76.20
2019-01-13T21:44:35.067Z,76.30
2019-01-13T21:47:17.349Z,76.40
2019-01-13T21:49:47.781Z,76.40
2019-01-13T21:52:34.281Z,76.50
2019-01-13T21:55:13.658Z,76.70
2019-01-13T21:57:48.654Z,76.80
2019-01-13T22:00:33.345Z,76.80
2019-01-13T22:03:05.816Z,76.90
2019-01-13T22:05:57.818Z,76.80
2019-01-13T22:08:30.744Z,76.70
2019-01-13T22:11:01.028Z,76.50
2019-01-13T22:13:46.650Z,76.40
2019-01-13T22:16:27.069Z,76.20
2019-01-13T22:19:03.544Z,75.90
2019-01-13T22:21:36.073Z,75.80
2019-01-13T22:24:14.437Z,75.80
2019-01-13T22:26:54.144Z,75.80
2019-01-13T22:30:11.171Z,75.30
2019-01-13T22:32:54.079Z,75.10
2019-01-13T22:35:34.424Z,75.00
2019-01-13T22:38:10.603Z,74.80
2019-01-13T22:40:54.224Z,74.50
2019-01-13T22:43:56.806Z,74.30
2019-01-13T22:46:28.512Z,73.90
2019-01-13T22:49:11.818Z,73.60
2019-01-13T22:51:51.891Z,73.20
2019-01-13T22:54:33.038Z,72.90
2019-01-13T22:57:05.393Z,72.50
2019-01-13T22:59:38.375Z,72.30
2019-01-13T23:02:08.898Z,72.00
2019-01-13T23:04:43.835Z,71.50
2019-01-13T23:07:23.205Z,71.20
2019-01-13T23:09:55.504Z,70.60
2019-01-13T23:12:40.906Z,70.50
2019-01-13T23:15:11.514Z,70.30
2019-01-13T23:17:46.077Z,70.10
2019-01-13T23:20:19.691Z,69.80
2019-01-13T23:22:50.166Z,69.80
2019-01-13T23:25:33.566Z,69.40
2019-01-13T23:28:11.987Z,69.40
2019-01-13T23:30:45.499Z,69.30
2019-01-13T23:33:18.782Z,69.30
2019-01-13T23:35:52.881Z,69.40
2019-01-13T23:38:24.788Z,69.50
2019-01-13T23:40:55.589Z,69.60
2019-01-13T23:43:27.795Z,69.60
2019-01-13T23:46:01.849Z,69.60
2019-01-13T23:48:32.753Z,69.50
2019-01-13T23:51:03.277Z,69.60
2019-01-13T23:53:37.723Z,69.50
2019-01-13T23:56:13.397Z,69.50
2019-01-13T23:58:45.861Z,69.60
